Lakeway's Hourly Summary for Monday, March 13, 2017
Hour Temp
(f)
RH
(%)
Solar Rad.
(MJ/m2)
Rainfall
(in)
Wind
(mph)
3/13/2017 12:00 AM 46 100 0 0 0.97
3/13/2017 1:00 AM 45 100 0 0 0.81
3/13/2017 2:00 AM 45 100 0 0 0.04
3/13/2017 3:00 AM 46 100 0 0 0.28
3/13/2017 4:00 AM 46 100 0 0 0.58
3/13/2017 5:00 AM 46 100 0 0 0.13
3/13/2017 6:00 AM 46 100 0 0 0.13
3/13/2017 7:00 AM 46 100 0 0 0.17
3/13/2017 8:00 AM 47 100 0 0 1.62
3/13/2017 9:00 AM 46 100 0.07 0 0.49
3/13/2017 10:00 AM 47 100 0.22 0.01 0.69
3/13/2017 11:00 AM 48 100 0.46 0 0.83
3/13/2017 12:00 PM 52 100 1.62 0 1.37
3/13/2017 1:00 PM 56 77 1.81 0 2.61
3/13/2017 2:00 PM 59 62 2.37 0 1.91
3/13/2017 3:00 PM 64 50 2.29 0 2.45
3/13/2017 4:00 PM 66 47 2.18 0 3.66
3/13/2017 5:00 PM 66 47 2.17 0 3.05
3/13/2017 6:00 PM 66 43 1.54 0 2.5
3/13/2017 7:00 PM 66 42 0.77 0 1.75
3/13/2017 8:00 PM 63 44 0.09 0 0.69
3/13/2017 9:00 PM 58 51 0 0 0.15
3/13/2017 10:00 PM 54 72 0 0 0
3/13/2017 11:00 PM 52 89 0 0 0
Data Summary 53 80 15.59 0.01 1.12